createdAt,value
2022-10-02T00:00:34.752Z,10.55
2022-10-02T00:01:34.842Z,10.53
2022-10-02T00:02:34.663Z,10.51
2022-10-02T00:03:34.801Z,10.52
2022-10-02T00:04:34.735Z,10.51
2022-10-02T00:05:34.971Z,10.46
2022-10-02T00:06:34.845Z,10.43
2022-10-02T00:07:35.533Z,10.39
2022-10-02T00:08:34.559Z,10.37
2022-10-02T00:09:34.612Z,10.37
2022-10-02T00:10:34.581Z,10.40
2022-10-02T00:11:34.694Z,10.44
2022-10-02T00:12:34.528Z,10.46
2022-10-02T00:13:34.596Z,10.46
2022-10-02T00:14:34.492Z,10.47
2022-10-02T00:15:34.450Z,10.51
2022-10-02T00:16:36.405Z,10.56
2022-10-02T00:17:34.430Z,10.60
2022-10-02T00:18:34.496Z,10.62
2022-10-02T00:19:34.715Z,10.59
2022-10-02T00:20:34.518Z,10.60
2022-10-02T00:21:34.547Z,10.62
2022-10-02T00:22:34.353Z,10.63
2022-10-02T00:23:34.429Z,10.63
2022-10-02T00:24:34.347Z,10.62
2022-10-02T00:25:34.394Z,10.63
2022-10-02T00:26:34.815Z,10.62
2022-10-02T00:27:35.178Z,10.60
2022-10-02T00:28:34.397Z,10.59
2022-10-02T00:29:34.298Z,10.62
2022-10-02T00:30:34.986Z,10.65
2022-10-02T00:31:35.215Z,10.66
2022-10-02T00:32:34.267Z,10.70
2022-10-02T00:33:34.364Z,10.70
2022-10-02T00:34:34.291Z,10.71
2022-10-02T00:35:35.166Z,10.70
2022-10-02T00:36:34.482Z,10.68
2022-10-02T00:37:34.253Z,10.70
2022-10-02T00:38:34.343Z,10.70
2022-10-02T00:39:34.334Z,10.73
2022-10-02T00:40:34.208Z,10.71
2022-10-02T00:41:34.155Z,10.70
2022-10-02T00:42:35.552Z,10.70
2022-10-02T00:43:37.536Z,10.71
2022-10-02T00:44:34.651Z,10.73
2022-10-02T00:45:34.249Z,10.71
2022-10-02T00:46:34.487Z,10.68
2022-10-02T00:47:34.191Z,10.70
2022-10-02T00:48:34.105Z,10.65
2022-10-02T00:49:34.638Z,10.65
2022-10-02T00:50:41.271Z,10.65
2022-10-02T00:51:35.058Z,10.63
2022-10-02T00:52:33.978Z,10.65
2022-10-02T00:53:33.930Z,10.68
2022-10-02T00:54:34.459Z,10.73
2022-10-02T00:55:34.247Z,10.71
2022-10-02T00:56:34.314Z,10.71
2022-10-02T00:57:34.180Z,10.70
2022-10-02T00:58:33.978Z,10.71
2022-10-02T00:59:33.883Z,10.70
2022-10-02T01:00:34.082Z,10.68
2022-10-02T01:01:34.170Z,10.66
2022-10-02T01:02:35.082Z,10.65
2022-10-02T01:03:33.881Z,10.65
2022-10-02T01:04:35.253Z,10.65
2022-10-02T01:05:34.667Z,10.65
2022-10-02T01:06:34.374Z,10.66
2022-10-02T01:07:35.490Z,10.71
2022-10-02T01:08:38.153Z,10.70
2022-10-02T01:09:33.814Z,10.74
2022-10-02T01:10:33.862Z,10.77
2022-10-02T01:11:33.951Z,10.77
2022-10-02T01:12:35.755Z,10.78
2022-10-02T01:13:35.923Z,10.81
2022-10-02T01:14:35.452Z,10.80
2022-10-02T01:15:37.984Z,10.80
2022-10-02T01:16:34.002Z,10.81
2022-10-02T01:17:35.985Z,10.78
2022-10-02T01:18:34.831Z,10.77
2022-10-02T01:19:33.564Z,10.77
2022-10-02T01:20:33.919Z,10.80
2022-10-02T01:21:35.094Z,10.81
2022-10-02T01:22:33.525Z,10.80
2022-10-02T01:23:33.545Z,10.77
2022-10-02T01:24:39.685Z,10.76
2022-10-02T01:25:33.976Z,10.76
2022-10-02T01:26:36.350Z,10.74
2022-10-02T01:27:38.018Z,10.73
2022-10-02T01:28:36.956Z,10.70
2022-10-02T01:29:37.894Z,10.74
2022-10-02T01:30:34.556Z,10.76
2022-10-02T01:31:34.460Z,10.74
2022-10-02T01:32:34.307Z,10.73
2022-10-02T02:16:01.086Z,11.06
2022-10-02T02:17:01.026Z,11.06
2022-10-02T02:18:00.646Z,11.06
2022-10-02T02:19:00.972Z,11.07
2022-10-02T02:20:00.672Z,11.07
2022-10-02T02:21:00.642Z,11.07
2022-10-02T02:22:01.362Z,11.09
2022-10-02T02:23:00.552Z,11.09
2022-10-02T02:24:01.381Z,11.09
2022-10-02T02:25:00.593Z,11.09
2022-10-02T02:26:01.459Z,11.07
2022-10-02T02:27:01.352Z,11.09
2022-10-02T02:28:01.324Z,11.09
2022-10-02T02:29:00.490Z,11.07
2022-10-02T02:30:00.860Z,11.07
2022-10-02T02:31:01.222Z,11.03
2022-10-02T02:32:01.398Z,11.03
2022-10-02T02:33:01.286Z,11.03
2022-10-02T02:34:01.216Z,11.03
2022-10-02T02:35:01.356Z,11.02
2022-10-02T02:36:01.272Z,11.01
2022-10-02T02:37:01.421Z,11.01
2022-10-02T02:38:00.372Z,11.01
2022-10-02T02:39:01.310Z,11.02
2022-10-02T02:40:00.424Z,11.03
2022-10-02T02:41:00.332Z,11.02
2022-10-02T02:42:00.277Z,11.02
2022-10-02T02:43:01.098Z,11.01
2022-10-02T02:44:01.009Z,11.01
2022-10-02T02:45:01.180Z,11.03
2022-10-02T02:46:00.287Z,11.02
2022-10-02T02:47:00.968Z,11.03
2022-10-02T02:48:01.648Z,11.02
2022-10-02T02:49:01.028Z,10.99
2022-10-02T02:50:00.937Z,10.98
2022-10-02T02:51:00.205Z,10.95
2022-10-02T02:52:00.161Z,10.96
2022-10-02T02:53:00.129Z,10.92
2022-10-02T02:54:00.177Z,10.91
2022-10-02T02:55:00.137Z,10.89
2022-10-02T02:56:00.110Z,10.88
2022-10-02T02:57:01.037Z,10.86
2022-10-02T02:58:00.941Z,10.83
2022-10-02T02:59:00.116Z,10.81
2022-10-02T03:00:00.074Z,10.80
2022-10-02T03:01:00.169Z,10.76
2022-10-02T03:02:00.106Z,10.73
2022-10-02T03:03:00.689Z,10.70
2022-10-02T03:03:59.947Z,10.65
2022-10-02T03:05:00.778Z,10.65
2022-10-02T03:06:00.708Z,10.60
2022-10-02T03:07:00.839Z,10.53
2022-10-02T03:08:00.557Z,10.44
2022-10-02T03:09:00.164Z,10.37
2022-10-02T03:09:59.868Z,10.26
2022-10-02T03:11:00.711Z,10.21
2022-10-02T03:11:59.893Z,10.14
2022-10-02T03:12:59.837Z,10.04
2022-10-02T03:13:59.841Z,9.97
2022-10-02T03:14:59.891Z,9.91
2022-10-02T03:16:00.793Z,9.85
2022-10-02T03:17:00.642Z,9.81
2022-10-02T03:18:00.599Z,9.75
2022-10-02T03:18:59.789Z,9.73
2022-10-02T03:20:01.230Z,9.70
2022-10-02T03:20:59.805Z,9.68
2022-10-02T03:21:59.701Z,9.70
2022-10-02T03:23:00.583Z,9.71
2022-10-02T03:24:02.083Z,9.76
2022-10-02T03:24:59.764Z,9.78
2022-10-02T03:25:59.853Z,9.78
2022-10-02T03:27:00.452Z,9.78
2022-10-02T03:28:00.668Z,9.79
2022-10-02T03:29:00.603Z,9.81
2022-10-02T03:29:59.656Z,9.79
2022-10-02T03:30:59.595Z,9.78
2022-10-02T03:32:00.484Z,9.76
2022-10-02T03:32:59.583Z,9.81
2022-10-02T03:33:59.534Z,9.82
2022-10-02T03:35:00.455Z,9.82
2022-10-02T03:35:59.662Z,9.83
2022-10-02T03:37:00.006Z,9.88
2022-10-02T03:37:59.506Z,9.89
2022-10-02T03:39:24.145Z,9.96
2022-10-02T03:40:01.255Z,10.01
2022-10-02T03:40:59.419Z,10.04
2022-10-02T03:42:00.320Z,10.07
2022-10-02T03:43:00.848Z,10.10
2022-10-02T03:44:00.362Z,10.10
2022-10-02T03:44:59.367Z,10.12
2022-10-02T03:46:00.237Z,10.12
2022-10-02T03:46:59.628Z,10.14
2022-10-02T03:47:59.343Z,10.15
2022-10-02T03:48:59.318Z,10.17
2022-10-02T03:49:59.278Z,10.18
2022-10-02T03:51:00.198Z,10.18
2022-10-02T03:52:00.117Z,10.17
2022-10-02T03:53:00.039Z,10.18
2022-10-02T03:53:59.252Z,10.18
2022-10-02T03:55:00.069Z,10.18
2022-10-02T03:55:59.218Z,10.18
2022-10-02T03:57:00.166Z,10.17
2022-10-02T03:58:00.038Z,10.15
2022-10-02T03:58:59.940Z,10.17
2022-10-02T03:59:59.159Z,10.18
2022-10-02T04:00:59.279Z,10.15
2022-10-02T04:01:59.230Z,10.09
2022-10-02T04:03:00.077Z,10.09
2022-10-02T04:04:00.075Z,10.09
2022-10-02T04:05:00.550Z,10.07
2022-10-02T04:06:00.069Z,10.06
2022-10-02T04:06:59.944Z,10.01
2022-10-02T04:07:59.850Z,9.99
2022-10-02T04:08:59.011Z,9.96
2022-10-02T04:09:59.024Z,9.91
2022-10-02T04:10:59.818Z,9.86
2022-10-02T04:11:59.971Z,9.81
2022-10-02T04:12:59.003Z,9.70
2022-10-02T04:13:59.788Z,9.64
2022-10-02T04:14:59.942Z,9.61
2022-10-02T04:15:59.907Z,9.57
2022-10-02T04:16:58.965Z,9.53
2022-10-02T04:17:59.253Z,9.53
2022-10-02T04:18:59.815Z,9.52
2022-10-02T04:19:59.216Z,9.50
2022-10-02T04:20:58.921Z,9.49
2022-10-02T04:21:58.894Z,9.45
2022-10-02T04:22:58.991Z,9.35
2022-10-02T04:23:58.819Z,9.30
2022-10-02T04:24:59.756Z,9.24
2022-10-02T04:26:00.248Z,9.18
2022-10-02T04:26:58.834Z,9.10
2022-10-02T04:27:59.798Z,9.02
2022-10-02T04:28:58.756Z,8.96
2022-10-02T04:29:59.526Z,8.88
2022-10-02T04:30:59.101Z,8.84
2022-10-02T04:31:59.652Z,8.75
2022-10-02T04:32:58.714Z,8.68
2022-10-02T04:33:58.737Z,8.60
2022-10-02T04:34:58.678Z,8.51
2022-10-02T04:35:59.457Z,8.44
2022-10-02T04:36:58.725Z,8.35
2022-10-02T04:37:59.528Z,8.26
2022-10-02T04:38:59.432Z,8.26
2022-10-02T04:39:59.607Z,8.32
2022-10-02T04:40:58.621Z,8.40
2022-10-02T04:41:59.398Z,8.45
2022-10-02T04:43:00.022Z,8.48
2022-10-02T04:43:59.469Z,8.48
2022-10-02T04:44:58.526Z,8.50
2022-10-02T04:45:59.559Z,8.50
2022-10-02T04:46:58.574Z,8.51
2022-10-02T04:47:58.561Z,8.54
2022-10-02T04:48:58.588Z,8.51
2022-10-02T04:49:59.400Z,8.50
2022-10-02T04:50:58.531Z,8.48
2022-10-02T04:51:58.580Z,8.48
2022-10-02T04:52:58.542Z,8.48
2022-10-02T04:53:59.270Z,8.47
2022-10-02T04:54:58.401Z,8.47
2022-10-02T04:55:58.380Z,8.51
2022-10-02T04:56:58.417Z,8.50
2022-10-02T04:57:59.140Z,8.51
2022-10-02T04:58:59.301Z,8.50
2022-10-02T04:59:58.352Z,8.51
2022-10-02T05:00:59.175Z,8.54
2022-10-02T05:01:58.592Z,8.55
2022-10-02T05:02:59.210Z,8.54
2022-10-02T05:04:03.889Z,8.54
2022-10-02T05:04:59.242Z,8.58
2022-10-02T05:05:58.253Z,8.62
2022-10-02T05:06:59.043Z,8.60
2022-10-02T05:07:59.204Z,8.66
2022-10-02T05:08:58.186Z,8.69
2022-10-02T05:09:58.333Z,8.71
2022-10-02T05:10:58.233Z,8.73
2022-10-02T05:11:59.104Z,8.76
2022-10-02T05:12:58.984Z,8.81
2022-10-02T05:13:58.886Z,8.83
2022-10-02T05:14:58.155Z,8.84
2022-10-02T05:15:58.191Z,8.79
2022-10-02T05:16:58.107Z,8.81
2022-10-02T05:17:58.325Z,8.83
2022-10-02T05:18:58.156Z,8.83
2022-10-02T05:19:58.076Z,8.86
2022-10-02T05:20:58.048Z,8.91
2022-10-02T05:21:58.556Z,8.93
2022-10-02T05:22:58.456Z,8.93
2022-10-02T05:23:58.951Z,8.88
2022-10-02T05:24:58.038Z,8.86
2022-10-02T05:25:58.007Z,8.86
2022-10-02T05:26:58.050Z,8.86
2022-10-02T05:27:58.923Z,8.87
2022-10-02T05:28:58.010Z,8.87
2022-10-02T05:29:58.895Z,8.90
2022-10-02T05:30:58.833Z,8.93
2022-10-02T05:31:58.703Z,8.94
2022-10-02T05:32:57.898Z,8.99
2022-10-02T05:33:58.790Z,9.04
2022-10-02T05:34:58.660Z,9.04
2022-10-02T05:35:58.837Z,9.05
2022-10-02T05:36:58.727Z,9.06
2022-10-02T05:37:58.628Z,9.05
2022-10-02T05:38:57.777Z,9.05
2022-10-02T05:39:58.811Z,9.04
2022-10-02T05:40:57.892Z,9.06
2022-10-02T05:41:59.702Z,9.05
2022-10-02T05:42:57.752Z,9.04
2022-10-02T05:43:58.560Z,9.04
2022-10-02T05:44:58.101Z,9.02
2022-10-02T05:45:57.932Z,8.99
2022-10-02T05:46:57.828Z,8.94
2022-10-02T05:47:58.448Z,8.90
2022-10-02T05:48:57.663Z,8.94
2022-10-02T05:49:58.500Z,8.97
2022-10-02T05:50:58.408Z,9.05
2022-10-02T05:51:57.654Z,9.12
2022-10-02T05:52:59.148Z,9.18
2022-10-02T05:53:58.380Z,9.21
2022-10-02T05:54:57.571Z,9.27
2022-10-02T05:55:57.603Z,9.39
2022-10-02T05:56:58.112Z,9.48
2022-10-02T05:57:57.551Z,9.56
2022-10-02T05:58:57.532Z,9.63
2022-10-02T05:59:57.523Z,9.68
2022-10-02T06:00:57.572Z,9.76
2022-10-02T06:01:57.514Z,9.86
2022-10-02T06:02:58.273Z,9.93
2022-10-02T06:03:57.482Z,10.00
2022-10-02T06:04:58.344Z,10.06
2022-10-02T06:05:57.834Z,10.10
2022-10-02T06:06:58.404Z,10.15
2022-10-02T06:07:57.426Z,10.21
2022-10-02T06:08:57.395Z,10.30
2022-10-02T06:09:57.386Z,10.39
2022-10-02T06:10:57.354Z,10.47
2022-10-02T06:11:58.028Z,10.59
2022-10-02T06:12:58.086Z,10.73
2022-10-02T06:13:57.305Z,10.81
2022-10-02T06:14:58.239Z,10.89
2022-10-02T06:15:57.331Z,10.98
2022-10-02T06:16:57.268Z,11.07
2022-10-02T06:17:58.131Z,11.16
2022-10-02T06:18:57.494Z,11.21
2022-10-02T06:20:02.975Z,11.31
2022-10-02T06:20:58.257Z,11.35
2022-10-02T06:21:57.521Z,11.43
2022-10-02T06:22:57.296Z,11.44
2022-10-02T06:23:57.248Z,11.46
2022-10-02T06:24:58.002Z,11.46
2022-10-02T06:25:57.428Z,11.46
2022-10-02T06:26:57.586Z,11.44
2022-10-02T06:27:58.024Z,11.44
2022-10-02T06:28:57.177Z,11.46
2022-10-02T06:29:57.109Z,11.46
2022-10-02T06:30:57.249Z,11.46
2022-10-02T06:31:57.235Z,11.44
2022-10-02T06:32:57.100Z,11.46
2022-10-02T06:33:57.895Z,11.44
2022-10-02T06:34:57.184Z,11.44
2022-10-02T06:35:57.341Z,11.41
2022-10-02T06:36:57.850Z,11.39
2022-10-02T06:37:57.371Z,11.38
2022-10-02T06:38:57.451Z,11.35
2022-10-02T06:39:57.144Z,11.32
2022-10-02T06:40:56.943Z,11.28
2022-10-02T06:41:56.933Z,11.27
2022-10-02T06:42:58.391Z,11.24
2022-10-02T06:43:56.922Z,11.21
2022-10-02T06:44:57.849Z,11.21
2022-10-02T06:45:57.798Z,11.19
2022-10-02T06:46:57.079Z,11.20
2022-10-02T06:47:56.940Z,11.21
2022-10-02T06:48:56.833Z,11.19
2022-10-02T06:49:57.603Z,11.17
2022-10-02T06:50:57.787Z,11.19
2022-10-02T06:51:56.813Z,11.17
2022-10-02T06:52:57.574Z,11.17
2022-10-02T06:53:56.760Z,11.21
2022-10-02T06:54:56.785Z,11.20
2022-10-02T06:55:56.745Z,11.24
2022-10-02T06:56:57.470Z,11.25
2022-10-02T06:57:57.606Z,11.27
2022-10-02T06:58:57.010Z,11.27
2022-10-02T06:59:56.675Z,11.29
2022-10-02T07:00:57.615Z,11.29
2022-10-02T07:01:57.677Z,11.31
2022-10-02T07:02:56.655Z,11.31
2022-10-02T07:03:56.699Z,11.32
2022-10-02T07:04:56.687Z,11.32
2022-10-02T07:05:56.577Z,11.32
2022-10-02T07:06:56.555Z,11.32
2022-10-02T07:07:56.569Z,11.31
2022-10-02T07:08:56.886Z,11.29
2022-10-02T07:09:57.491Z,11.29
2022-10-02T07:10:56.518Z,11.29
2022-10-02T07:11:57.288Z,11.29
2022-10-02T07:12:56.503Z,11.31
2022-10-02T07:13:56.809Z,11.32
2022-10-02T07:14:56.519Z,11.35
2022-10-02T07:15:57.424Z,11.39
2022-10-02T07:16:56.493Z,11.44
2022-10-02T07:17:57.221Z,11.50
2022-10-02T07:18:56.860Z,11.52
2022-10-02T07:19:56.470Z,11.52
2022-10-02T07:20:57.191Z,11.50
2022-10-02T07:21:56.371Z,11.49
2022-10-02T07:22:57.284Z,11.46
2022-10-02T07:24:00.125Z,11.46
2022-10-02T07:24:57.418Z,11.41
2022-10-02T07:25:56.408Z,11.41
2022-10-02T07:26:56.362Z,11.43
2022-10-02T07:27:56.366Z,11.43
2022-10-02T07:28:57.192Z,11.43
2022-10-02T07:29:56.974Z,11.44
2022-10-02T07:30:56.398Z,11.50
2022-10-02T07:31:56.265Z,11.57
2022-10-02T07:32:56.332Z,11.65
2022-10-02T07:33:56.183Z,11.72
2022-10-02T07:34:56.217Z,11.78
2022-10-02T07:35:56.242Z,11.83
2022-10-02T07:36:56.207Z,11.90
2022-10-02T07:37:57.095Z,11.99
2022-10-02T07:38:56.115Z,12.05
2022-10-02T07:39:56.143Z,12.13
2022-10-02T07:40:59.882Z,12.21
2022-10-02T07:41:56.225Z,12.27
2022-10-02T07:42:56.084Z,12.31
2022-10-02T07:43:56.188Z,12.39
2022-10-02T07:44:56.960Z,12.46
2022-10-02T07:45:56.069Z,12.54
2022-10-02T07:46:56.998Z,12.62
2022-10-02T07:47:56.006Z,12.77
2022-10-02T07:48:56.846Z,13.02
2022-10-02T07:49:56.708Z,13.24
2022-10-02T07:50:55.968Z,13.32
2022-10-02T07:51:55.983Z,13.36
2022-10-02T07:52:56.681Z,13.40
2022-10-02T07:53:55.909Z,13.51
2022-10-02T07:54:55.918Z,13.55
2022-10-02T07:55:55.989Z,13.61
2022-10-02T07:56:56.110Z,13.65
2022-10-02T07:57:56.709Z,13.65
2022-10-02T07:58:56.790Z,13.65
2022-10-02T07:59:56.772Z,13.63
2022-10-02T08:00:55.809Z,13.56
2022-10-02T08:01:56.610Z,13.46
2022-10-02T08:02:56.092Z,13.29
2022-10-02T08:03:56.703Z,13.17
2022-10-02T08:04:56.561Z,13.06
2022-10-02T08:05:55.774Z,12.96
2022-10-02T08:06:55.736Z,12.88
2022-10-02T08:07:56.512Z,12.81
2022-10-02T08:08:56.684Z,12.74
2022-10-02T08:09:55.801Z,12.69
2022-10-02T08:10:55.882Z,12.64
2022-10-02T08:11:55.709Z,12.67
2022-10-02T08:12:56.576Z,12.69
2022-10-02T08:13:55.806Z,12.70
2022-10-02T08:14:55.645Z,12.70
2022-10-02T08:15:55.702Z,12.70
2022-10-02T08:16:55.677Z,12.74
2022-10-02T08:17:58.688Z,12.77
2022-10-02T08:18:57.516Z,12.77
2022-10-02T08:19:55.616Z,12.79
2022-10-02T08:20:55.598Z,12.84
2022-10-02T08:21:55.573Z,12.85
2022-10-02T08:22:55.644Z,12.92
2022-10-02T08:23:55.698Z,12.95
2022-10-02T08:24:55.528Z,12.97
2022-10-02T08:25:55.489Z,13.02
2022-10-02T08:26:55.526Z,13.02
2022-10-02T08:27:55.669Z,13.02
2022-10-02T08:28:55.608Z,13.02
2022-10-02T08:29:55.477Z,12.97
2022-10-02T08:30:55.450Z,12.96
2022-10-02T08:31:55.738Z,12.93
2022-10-02T08:32:55.372Z,12.88
2022-10-02T08:33:55.400Z,12.85
2022-10-02T08:34:55.462Z,12.85
2022-10-02T08:35:55.571Z,12.84
2022-10-02T08:36:55.356Z,12.84
2022-10-02T08:37:55.576Z,12.82
2022-10-02T08:38:55.318Z,12.85
2022-10-02T08:39:55.372Z,12.88
2022-10-02T08:40:55.391Z,12.92
2022-10-02T08:41:55.299Z,12.92
2022-10-02T08:42:55.259Z,12.96
2022-10-02T08:43:55.251Z,13.03
2022-10-02T08:44:55.203Z,13.18
2022-10-02T08:45:55.402Z,13.33
2022-10-02T08:46:55.145Z,13.54
2022-10-02T08:47:55.189Z,13.65
2022-10-02T08:48:55.163Z,13.73
2022-10-02T08:49:55.159Z,13.81
2022-10-02T08:50:55.114Z,14.02
2022-10-02T08:51:55.180Z,14.29
2022-10-02T08:52:55.263Z,14.56
2022-10-02T08:53:55.136Z,14.71
2022-10-02T08:54:55.096Z,14.72
2022-10-02T08:55:55.036Z,14.68
2022-10-02T08:56:55.018Z,14.57
2022-10-02T08:57:55.089Z,14.49
2022-10-02T08:58:55.056Z,14.52
2022-10-02T08:59:55.923Z,14.42
2022-10-02T09:00:55.293Z,14.37
2022-10-02T09:01:59.559Z,14.43
2022-10-02T09:02:56.227Z,14.49
2022-10-02T09:03:55.188Z,14.42
2022-10-02T09:04:55.161Z,14.35
2022-10-02T09:05:54.898Z,14.27
2022-10-02T09:06:54.929Z,14.19
2022-10-02T09:07:54.930Z,14.09
2022-10-02T09:08:54.859Z,13.96
2022-10-02T09:09:54.882Z,13.81
2022-10-02T09:10:54.880Z,13.74
2022-10-02T09:11:54.850Z,13.70
2022-10-02T09:12:54.823Z,13.63
2022-10-02T09:13:54.801Z,13.59
2022-10-02T09:14:58.734Z,13.58
2022-10-02T09:15:54.781Z,13.59
2022-10-02T09:16:55.597Z,13.65
2022-10-02T09:17:54.771Z,13.79
2022-10-02T09:18:54.790Z,13.92
2022-10-02T09:19:55.492Z,14.02
2022-10-02T09:20:54.677Z,14.10
2022-10-02T09:21:54.764Z,14.13
2022-10-02T09:22:56.154Z,14.10
2022-10-02T09:23:55.623Z,14.02
2022-10-02T09:24:54.647Z,13.95
2022-10-02T09:25:54.667Z,13.88
2022-10-02T09:26:54.648Z,13.83
2022-10-02T09:27:55.577Z,13.74
2022-10-02T09:28:54.565Z,13.71
2022-10-02T09:29:54.555Z,13.62
2022-10-02T09:30:54.620Z,13.58
2022-10-02T09:31:54.569Z,13.55
2022-10-02T09:32:54.547Z,13.52
2022-10-02T09:33:54.506Z,13.47
2022-10-02T09:34:55.337Z,13.46
2022-10-02T09:35:55.153Z,13.40
2022-10-02T09:36:55.248Z,13.38
2022-10-02T09:37:55.304Z,13.37
2022-10-02T09:38:55.887Z,13.33
2022-10-02T09:39:55.228Z,13.32
2022-10-02T09:40:55.316Z,13.27
2022-10-02T09:41:54.438Z,13.27
2022-10-02T09:42:54.398Z,13.32
2022-10-02T09:43:55.801Z,13.37
2022-10-02T09:44:57.194Z,13.41
2022-10-02T09:45:55.343Z,13.41
2022-10-02T09:46:54.378Z,13.38
2022-10-02T09:47:54.379Z,13.37
2022-10-02T09:48:54.397Z,13.33
2022-10-02T09:49:55.179Z,13.32
2022-10-02T09:50:54.270Z,13.30
2022-10-02T09:51:54.270Z,13.29
2022-10-02T09:52:55.146Z,13.25
2022-10-02T09:53:54.222Z,13.24
2022-10-02T09:54:54.221Z,13.20
2022-10-02T09:55:55.114Z,13.17
2022-10-02T09:56:55.015Z,13.07
2022-10-02T09:57:54.223Z,12.97
2022-10-02T09:58:54.187Z,12.87
2022-10-02T09:59:54.983Z,12.81
2022-10-02T10:00:54.203Z,12.75
2022-10-02T10:01:55.089Z,12.69
2022-10-02T10:02:54.951Z,12.67
2022-10-02T10:03:54.855Z,12.66
2022-10-02T10:05:05.489Z,12.66
2022-10-02T10:05:55.946Z,12.67
2022-10-02T10:06:54.856Z,12.70
2022-10-02T10:07:54.014Z,12.75
2022-10-02T10:08:54.905Z,12.79
2022-10-02T10:09:54.834Z,12.85
2022-10-02T10:10:53.999Z,12.92
2022-10-02T10:11:54.863Z,12.96
2022-10-02T10:12:53.938Z,12.92
2022-10-02T10:13:54.919Z,12.88
2022-10-02T10:14:54.817Z,12.88
2022-10-02T10:15:53.919Z,12.88
2022-10-02T10:16:53.899Z,12.88
2022-10-02T10:17:53.881Z,12.87
2022-10-02T10:18:53.869Z,12.88
2022-10-02T10:19:54.860Z,12.88
2022-10-02T10:20:53.868Z,12.89
2022-10-02T10:21:53.860Z,12.93
2022-10-02T10:22:54.567Z,12.99
2022-10-02T10:23:54.730Z,13.02
2022-10-02T10:24:54.629Z,13.06
2022-10-02T10:25:54.532Z,13.14
2022-10-02T10:26:54.718Z,13.20
2022-10-02T10:27:54.680Z,13.25
2022-10-02T10:28:53.740Z,13.32
2022-10-02T10:29:53.691Z,13.37
2022-10-02T10:30:53.731Z,13.36
2022-10-02T10:31:53.932Z,13.32
2022-10-02T10:32:54.644Z,13.32
2022-10-02T10:33:54.532Z,13.30
2022-10-02T10:34:53.642Z,13.37
2022-10-02T10:35:53.623Z,13.37
2022-10-02T10:36:54.505Z,13.30
2022-10-02T10:37:54.425Z,13.40
2022-10-02T10:38:53.915Z,13.49
2022-10-02T10:39:53.891Z,13.59
2022-10-02T10:40:53.666Z,13.73
2022-10-02T10:41:53.927Z,13.80
2022-10-02T10:43:07.543Z,13.77
2022-10-02T10:43:54.600Z,13.77
2022-10-02T10:44:53.526Z,13.83
2022-10-02T10:45:53.592Z,13.96
2022-10-02T10:46:54.310Z,14.02
2022-10-02T10:47:53.638Z,14.17
2022-10-02T10:48:53.505Z,14.31
2022-10-02T10:49:53.628Z,14.42
2022-10-02T10:50:53.427Z,14.49
2022-10-02T10:51:54.347Z,14.64
2022-10-02T10:52:53.418Z,14.80
2022-10-02T10:53:54.718Z,14.90
2022-10-02T10:54:53.409Z,15.01
2022-10-02T10:55:54.214Z,15.06
2022-10-02T10:56:54.118Z,15.09
2022-10-02T10:57:53.828Z,15.17
2022-10-02T10:58:53.341Z,15.13
2022-10-02T10:59:54.100Z,15.20
2022-10-02T11:00:53.616Z,15.28
2022-10-02T11:01:53.929Z,15.45
2022-10-02T11:02:53.372Z,15.70
2022-10-02T11:03:53.221Z,15.93
2022-10-02T11:04:54.124Z,16.15
2022-10-02T11:05:53.241Z,16.33
2022-10-02T11:06:53.291Z,16.63
2022-10-02T11:07:53.273Z,16.93
2022-10-02T11:08:53.251Z,17.23
2022-10-02T11:09:53.212Z,17.59
2022-10-02T11:10:53.223Z,18.00
2022-10-02T11:11:53.256Z,18.24
2022-10-02T11:12:53.863Z,18.49
2022-10-02T11:13:53.583Z,18.68
2022-10-02T11:14:53.215Z,18.86
2022-10-02T11:15:53.084Z,19.08
2022-10-02T11:16:53.211Z,19.08
2022-10-02T11:17:53.895Z,19.23
2022-10-02T11:18:54.547Z,19.17
2022-10-02T11:19:53.962Z,19.21
2022-10-02T11:20:53.863Z,19.43
2022-10-02T11:21:53.068Z,19.55
2022-10-02T11:22:53.925Z,19.69
2022-10-02T11:23:53.836Z,19.87
2022-10-02T11:24:52.958Z,19.78
2022-10-02T11:25:53.900Z,19.88
2022-10-02T11:26:53.807Z,19.95
2022-10-02T11:27:53.772Z,20.21
2022-10-02T11:28:53.098Z,20.02
2022-10-02T11:29:54.350Z,20.21
2022-10-02T11:30:52.949Z,20.06
2022-10-02T11:31:52.946Z,20.05
2022-10-02T11:32:53.745Z,20.20
2022-10-02T11:33:52.801Z,19.78
2022-10-02T11:34:54.242Z,19.69
2022-10-02T11:35:52.793Z,19.88
2022-10-02T11:36:52.767Z,19.95
2022-10-02T11:37:52.771Z,19.46
2022-10-02T11:38:52.773Z,19.47
2022-10-02T11:39:53.572Z,19.84
2022-10-02T11:40:53.134Z,20.20
2022-10-02T11:41:52.762Z,20.13
2022-10-02T11:42:52.744Z,19.88
2022-10-02T11:43:52.709Z,19.98
2022-10-02T11:44:52.656Z,19.80
2022-10-02T11:45:53.533Z,19.72
2022-10-02T11:46:52.668Z,19.53
2022-10-02T11:47:52.635Z,19.54
2022-10-02T11:48:52.626Z,20.00
2022-10-02T11:49:52.727Z,20.12
2022-10-02T11:50:53.548Z,20.51
2022-10-02T11:51:52.659Z,20.74
2022-10-02T11:52:53.349Z,20.56
2022-10-02T11:53:53.509Z,19.31
2022-10-02T11:54:52.659Z,18.33
2022-10-02T11:55:53.319Z,17.76
2022-10-02T11:56:53.479Z,17.91
2022-10-02T11:57:52.479Z,17.85
2022-10-02T11:58:53.283Z,17.59
2022-10-02T11:59:53.452Z,17.25
2022-10-02T12:00:53.352Z,17.00
2022-10-02T12:01:52.493Z,17.47
2022-10-02T12:02:53.499Z,17.32
2022-10-02T12:03:53.321Z,17.03
2022-10-02T12:04:52.646Z,16.77
2022-10-02T12:05:53.137Z,16.52
2022-10-02T12:06:53.284Z,17.47
2022-10-02T12:07:52.363Z,17.13
2022-10-02T12:08:53.097Z,17.64
2022-10-02T12:09:52.316Z,18.19
2022-10-02T12:10:53.163Z,18.03
2022-10-02T12:11:53.063Z,18.62
2022-10-02T12:12:52.279Z,19.23
2022-10-02T12:13:52.255Z,19.68
2022-10-02T12:14:52.317Z,19.66
2022-10-02T12:15:52.299Z,19.47
2022-10-02T12:16:52.877Z,19.76
2022-10-02T12:17:53.029Z,20.12
2022-10-02T12:18:52.198Z,20.61
2022-10-02T12:19:53.073Z,20.89
2022-10-02T12:20:52.162Z,21.13
2022-10-02T12:21:53.134Z,21.46
2022-10-02T12:22:52.159Z,21.78
2022-10-02T12:23:52.935Z,21.90
2022-10-02T12:24:54.905Z,21.75
2022-10-02T12:25:53.002Z,21.72
2022-10-02T12:26:52.081Z,21.63
2022-10-02T12:27:52.130Z,21.72
2022-10-02T12:28:52.966Z,21.61
2022-10-02T12:29:52.055Z,21.64
2022-10-02T12:30:52.085Z,21.57
2022-10-02T12:31:52.281Z,21.42
2022-10-02T12:32:52.842Z,21.41
2022-10-02T12:33:56.417Z,21.67
2022-10-02T12:34:51.967Z,21.92
2022-10-02T12:35:51.947Z,22.20
2022-10-02T12:36:51.965Z,22.01
2022-10-02T12:37:52.919Z,21.20
2022-10-02T12:38:52.773Z,21.06
2022-10-02T12:39:52.676Z,19.98
2022-10-02T12:40:51.995Z,19.01
2022-10-02T12:41:51.899Z,18.18
2022-10-02T12:42:52.648Z,17.63
2022-10-02T12:43:52.829Z,17.29
2022-10-02T12:44:52.258Z,17.97
2022-10-02T12:45:52.644Z,18.59
2022-10-02T12:46:52.846Z,17.82
2022-10-02T12:47:53.240Z,17.70
2022-10-02T12:48:52.343Z,18.17
2022-10-02T12:49:51.860Z,18.77
2022-10-02T12:50:52.642Z,18.91
2022-10-02T12:51:51.725Z,18.98
2022-10-02T12:52:52.714Z,18.33
2022-10-02T12:53:51.792Z,17.55
2022-10-02T12:54:52.561Z,16.99
2022-10-02T12:55:51.732Z,16.53
2022-10-02T12:56:52.584Z,16.23
2022-10-02T12:57:52.484Z,15.94
2022-10-02T12:58:51.627Z,15.75
2022-10-02T12:59:52.553Z,15.59
2022-10-02T13:00:51.692Z,15.45
2022-10-02T13:01:52.463Z,15.31
2022-10-02T13:03:01.615Z,15.20
2022-10-02T13:03:52.698Z,15.08
2022-10-02T13:04:51.572Z,15.02
2022-10-02T13:05:51.527Z,16.09
2022-10-02T13:06:51.641Z,17.10
2022-10-02T13:07:51.588Z,18.19
2022-10-02T13:08:51.498Z,18.90
2022-10-02T13:09:52.363Z,19.50
2022-10-02T13:10:52.266Z,20.00
2022-10-02T13:11:55.683Z,20.51
2022-10-02T13:12:52.332Z,20.84
2022-10-02T13:13:51.461Z,21.14
2022-10-02T13:14:51.403Z,21.36
2022-10-02T13:15:51.419Z,21.23
2022-10-02T13:16:52.253Z,21.27
2022-10-02T13:17:52.381Z,21.35
2022-10-02T13:18:52.274Z,21.63
2022-10-02T13:19:52.165Z,21.99
2022-10-02T13:20:51.334Z,22.14
2022-10-02T13:21:51.315Z,21.95
2022-10-02T13:22:51.345Z,21.85
2022-10-02T13:23:52.320Z,21.85
2022-10-02T13:24:51.298Z,21.81
2022-10-02T13:25:52.114Z,21.99
2022-10-02T13:26:51.473Z,22.02
2022-10-02T13:27:51.601Z,21.98
2022-10-02T13:28:51.209Z,22.13
2022-10-02T13:29:51.881Z,22.31
2022-10-02T13:30:51.178Z,22.27
2022-10-02T13:31:52.088Z,22.25
2022-10-02T13:32:51.979Z,22.07
2022-10-02T13:33:52.142Z,21.74
2022-10-02T13:34:52.032Z,21.71
2022-10-02T13:35:51.528Z,21.76
2022-10-02T13:36:52.128Z,22.07
2022-10-02T13:37:51.102Z,22.14
2022-10-02T13:38:51.872Z,22.28
2022-10-02T13:39:52.042Z,22.56